Time;durP1;ratioP1;P1;durP2;ratioP2;P2;SDS_P1;SDS_P2;PMS_P1;PMS_P2;Temp;Humidity;BMP_temperature;BMP_pressure;BME280_temperature;BME280_humidity;BME280_pressure;Samples;Min_cycle;Max_cycle;Signal;HPM_P1;HPM_P2
2022/07/01 00:00:04;;;;;;;5.20;2.35;;;14.60;99.90;;;;;;5074002;28;20029;-77
2022/07/01 00:02:30;;;;;;;7.00;3.53;;;14.60;99.90;;;;;;5075801;28;20566;-77
2022/07/01 00:04:59;;;;;;;4.05;2.55;;;15.80;99.90;;;;;;5075270;28;20024;-77
2022/07/01 00:07:24;;;;;;;4.80;2.90;;;14.40;99.90;;;;;;5074958;28;20031;-75
2022/07/01 00:09:52;;;;;;;5.50;2.85;;;14.40;99.90;;;;;;5073211;28;20028;-76
2022/07/01 00:12:18;;;;;;;5.97;2.60;;;14.30;99.90;;;;;;5074465;28;20028;-76
2022/07/01 00:14:43;;;;;;;5.70;2.90;;;14.70;99.90;;;;;;5074484;28;20036;-75
2022/07/01 00:17:11;;;;;;;4.20;2.70;;;14.20;99.90;;;;;;5074919;28;20052;-76
2022/07/01 00:19:37;;;;;;;6.55;2.47;;;14.20;99.90;;;;;;5074653;28;20027;-76
2022/07/01 00:22:02;;;;;;;4.50;3.00;;;14.10;99.90;;;;;;5072945;28;20119;-76
2022/07/01 00:24:31;;;;;;;6.70;3.47;;;14.10;99.90;;;;;;5074912;28;20025;-75
2022/07/01 00:26:57;;;;;;;7.57;3.13;;;14.00;99.90;;;;;;5072376;28;20059;-75
2022/07/01 00:29:22;;;;;;;7.35;3.55;;;14.10;99.90;;;;;;5073684;28;20059;-76
2022/07/01 00:31:48;;;;;;;8.10;4.30;;;14.10;99.90;;;;;;5074150;28;20541;-76
2022/07/01 00:34:16;;;;;;;6.78;3.83;;;14.10;99.90;;;;;;5071595;28;20428;-75
2022/07/01 00:36:44;;;;;;;11.75;5.20;;;14.20;99.90;;;;;;5068209;28;20020;-75
2022/07/01 00:39:10;;;;;;;11.27;5.88;;;14.20;99.90;;;;;;5074022;28;20052;-75
2022/07/01 00:41:35;;;;;;;9.25;4.90;;;14.30;99.90;;;;;;5067519;28;20489;-75
2022/07/01 00:44:01;;;;;;;10.68;6.78;;;14.40;99.90;;;;;;5060333;28;20424;-76
2022/07/01 00:46:29;;;;;;;13.50;7.40;;;14.50;99.90;;;;;;5073902;28;20071;-75
2022/07/01 00:49:00;;;;;;;14.32;8.10;;;14.50;99.90;;;;;;5073083;28;20566;-75
2022/07/01 00:51:28;;;;;;;13.57;8.18;;;14.50;99.90;;;;;;5070986;28;20028;-75
2022/07/01 00:53:54;;;;;;;;;;;14.50;99.90;;;;;;5054255;28;20056;-75
2022/07/01 00:56:23;;;;;;;14.60;7.93;;;14.60;99.90;;;;;;5061549;28;19982;-75
2022/07/01 00:58:48;;;;;;;18.58;9.15;;;14.60;99.90;;;;;;5071194;28;20396;-75
2022/07/01 01:01:14;;;;;;;19.75;10.43;;;14.60;99.90;;;;;;5068857;28;20047;-74
2022/07/01 01:03:39;;;;;;;18.38;8.85;;;14.60;99.90;;;;;;5073478;28;20023;-75
2022/07/01 01:06:05;;;;;;;20.20;10.68;;;14.60;99.90;;;;;;5071729;28;20123;-75
2022/07/01 01:08:31;;;;;;;19.63;11.40;;;14.70;99.90;;;;;;5072331;28;20028;-75
2022/07/01 01:10:57;;;;;;;20.40;11.70;;;14.70;99.90;;;;;;5073238;28;20081;-75
2022/07/01 01:13:22;;;;;;;20.08;11.77;;;14.70;99.90;;;;;;5073767;28;20016;-75
2022/07/01 01:15:49;;;;;;;19.17;11.32;;;14.60;99.90;;;;;;5073767;28;20389;-75
2022/07/01 01:18:15;;;;;;;22.67;12.07;;;14.60;99.90;;;;;;5073715;28;20024;-75
2022/07/01 01:20:47;;;;;;;20.23;10.80;;;14.50;99.90;;;;;;5073659;28;20043;-75
2022/07/01 01:23:12;;;;;;;19.00;11.38;;;14.50;99.90;;;;;;5072165;28;20140;-76
2022/07/01 01:25:38;;;;;;;22.45;11.40;;;14.40;99.90;;;;;;5075440;28;20052;-79
2022/07/01 01:28:07;;;;;;;19.88;11.57;;;15.60;99.90;;;;;;5074554;28;20052;-77
2022/07/01 01:30:33;;;;;;;20.58;11.15;;;14.40;99.90;;;;;;5073746;28;20025;-77
2022/07/01 01:32:58;;;;;;;18.42;10.70;;;14.30;99.90;;;;;;5074176;28;20050;-77
2022/07/01 01:35:26;;;;;;;19.35;11.02;;;14.40;99.90;;;;;;5073730;28;20027;-77
2022/07/01 01:37:51;;;;;;;19.45;10.20;;;14.40;99.90;;;;;;5073737;28;20028;-77
2022/07/01 01:40:17;;;;;;;20.17;10.93;;;14.30;99.90;;;;;;5072607;28;20021;-77
2022/07/01 01:42:45;;;;;;;19.77;10.32;;;14.30;99.90;;;;;;5074077;28;20020;-77
2022/07/01 01:45:13;;;;;;;19.20;10.60;;;14.30;99.90;;;;;;5074056;28;20103;-76
2022/07/01 01:47:41;;;;;;;20.83;10.30;;;14.80;99.90;;;;;;5073681;28;20029;-77
2022/07/01 01:50:08;;;;;;;18.63;10.20;;;14.30;99.90;;;;;;5073839;28;20021;-76
2022/07/01 01:52:34;;;;;;;20.00;11.18;;;14.30;99.90;;;;;;5072961;28;20043;-77
2022/07/01 01:55:01;;;;;;;23.42;11.32;;;14.20;99.90;;;;;;5074844;28;20020;-77
2022/07/01 01:57:29;;;;;;;20.45;11.00;;;14.10;99.90;;;;;;5072248;28;20074;-77
2022/07/01 01:59:55;;;;;;;20.75;10.18;;;14.10;99.90;;;;;;5073169;28;20028;-77
2022/07/01 02:02:23;;;;;;;21.67;10.32;;;14.10;99.90;;;;;;5073437;28;20020;-77
2022/07/01 02:04:49;;;;;;;19.20;10.48;;;14.00;99.90;;;;;;5073739;28;20078;-77
2022/07/01 02:07:18;;;;;;;22.20;10.40;;;13.90;99.90;;;;;;5073120;28;20031;-77
2022/07/01 02:09:47;;;;;;;17.25;9.80;;;16.30;99.90;;;;;;5073095;28;20024;-77
2022/07/01 02:12:12;;;;;;;17.58;9.23;;;13.80;99.90;;;;;;5074160;28;20431;-77
2022/07/01 02:14:38;;;;;;;17.02;10.27;;;13.80;99.90;;;;;;5076933;28;20016;-77
2022/07/01 02:17:04;;;;;;;18.48;10.07;;;13.80;99.90;;;;;;5076685;28;20052;-77
2022/07/01 02:19:29;;;;;;;22.77;9.57;;;13.60;99.90;;;;;;5076906;28;20053;-76
2022/07/01 02:21:55;;;;;;;16.50;10.02;;;13.70;99.90;;;;;;5076955;28;20100;-76
2022/07/01 02:24:21;;;;;;;22.35;11.02;;;13.60;99.90;;;;;;5076938;28;20025;-77
2022/07/01 02:26:49;;;;;;;18.85;10.57;;;13.60;99.90;;;;;;5075422;28;20028;-76
2022/07/01 02:29:15;;;;;;;18.90;10.35;;;13.50;99.90;;;;;;5075043;28;20071;-76
2022/07/01 02:31:41;;;;;;;20.63;10.60;;;13.50;99.90;;;;;;5075708;28;20378;-76
2022/07/01 02:34:06;;;;;;;17.95;9.40;;;13.40;99.90;;;;;;5075074;28;20032;-76
2022/07/01 02:36:32;;;;;;;22.52;10.27;;;13.50;99.90;;;;;;5076418;28;20017;-76
2022/07/01 02:38:57;;;;;;;17.25;9.18;;;13.40;99.90;;;;;;5075168;28;20024;-76
2022/07/01 02:41:23;;;;;;;22.10;9.80;;;13.30;99.90;;;;;;5076199;28;20023;-76
2022/07/01 02:43:51;;;;;;;17.42;9.25;;;13.30;99.90;;;;;;5075009;28;20016;-77
2022/07/01 02:46:24;;;;;;;18.10;9.65;;;13.30;99.90;;;;;;5076895;28;20054;-76
2022/07/01 02:48:52;;;;;;;16.77;8.73;;;15.10;99.90;;;;;;5076405;28;20023;-76
2022/07/01 02:51:17;;;;;;;17.98;8.43;;;13.30;99.90;;;;;;5076304;28;20056;-75
2022/07/01 02:53:43;;;;;;;16.23;9.45;;;13.30;99.90;;;;;;5076242;28;20017;-76
2022/07/01 02:56:09;;;;;;;18.88;9.05;;;13.40;99.90;;;;;;5076038;28;20025;-76
2022/07/01 02:58:36;;;;;;;18.27;8.63;;;13.30;99.90;;;;;;5074953;28;20020;-77
2022/07/01 03:01:02;;;;;;;16.45;9.30;;;13.30;99.90;;;;;;5074890;28;20130;-76
2022/07/01 03:03:30;;;;;;;20.33;8.57;;;13.30;99.90;;;;;;5076217;28;20103;-76
2022/07/01 03:05:57;;;;;;;18.00;9.67;;;13.30;99.90;;;;;;5074815;28;20390;-76
2022/07/01 03:08:22;;;;;;;18.35;9.27;;;13.30;99.90;;;;;;5076189;28;20263;-76
2022/07/01 03:10:48;;;;;;;19.70;8.93;;;13.30;99.90;;;;;;5075208;28;20444;-76
2022/07/01 03:13:16;;;;;;;23.17;9.23;;;13.20;99.90;;;;;;5074925;28;20016;-77
2022/07/01 03:15:43;;;;;;;19.58;8.60;;;13.20;99.90;;;;;;5074907;28;20048;-77
2022/07/01 03:18:12;;;;;;;17.27;8.60;;;13.20;99.90;;;;;;5076034;28;20078;-77
2022/07/01 03:20:40;;;;;;;17.98;8.65;;;13.20;99.90;;;;;;5076186;28;20099;-74
2022/07/01 03:23:06;;;;;;;16.70;8.98;;;13.20;99.90;;;;;;5075527;28;20031;-74
2022/07/01 03:25:32;;;;;;;14.45;8.10;;;13.20;99.90;;;;;;5073592;28;20020;-74
2022/07/01 03:28:03;;;;;;;17.92;8.48;;;13.20;99.90;;;;;;5075393;28;20063;-74
2022/07/01 03:30:28;;;;;;;22.83;8.43;;;13.30;99.90;;;;;;5073992;28;20025;-74
2022/07/01 03:32:56;;;;;;;18.45;9.25;;;13.30;99.90;;;;;;5075481;28;20049;-74
2022/07/01 03:35:45;;;;;;;16.63;8.32;;;13.40;99.90;;;;;;5075587;28;20088;-74
2022/07/01 03:38:13;;;;;;;17.48;8.73;;;13.40;99.90;;;;;;5074023;28;20023;-74
2022/07/01 03:40:42;;;;;;;17.88;8.90;;;13.40;99.90;;;;;;5075043;28;20370;-74
2022/07/01 03:43:09;;;;;;;;;;;13.40;99.90;;;;;;5075654;28;20024;-74
2022/07/01 03:45:37;;;;;;;16.52;8.68;;;13.40;99.90;;;;;;5075000;28;19904;-74
2022/07/01 03:48:13;;;;;;;19.10;8.90;;;13.40;99.90;;;;;;5075496;28;20029;-74
2022/07/01 03:50:38;;;;;;;17.75;9.43;;;13.40;99.90;;;;;;5073627;28;20024;-74
2022/07/01 03:55:48;;;;;;;19.10;8.75;;;13.50;99.90;;;;;;5075381;28;20182;-74
2022/07/01 03:58:16;;;;;;;17.58;9.27;;;13.50;99.90;;;;;;5074583;28;20060;-74
2022/07/01 04:00:45;;;;;;;15.93;8.93;;;13.50;99.90;;;;;;5074656;28;20019;-74
2022/07/01 04:03:16;;;;;;;;;;;13.50;99.90;;;;;;5073699;28;20478;-74
2022/07/01 04:05:42;;;;;;;15.45;8.07;;;13.50;99.90;;;;;;5072861;28;19927;-74
2022/07/01 04:08:10;;;;;;;15.93;8.18;;;14.10;99.90;;;;;;5074000;28;20481;-73
2022/07/01 04:10:37;;;;;;;15.38;8.50;;;13.50;99.90;;;;;;5073015;28;20051;-74
2022/07/01 04:13:03;;;;;;;16.75;9.10;;;13.50;99.90;;;;;;5074335;28;20016;-74
2022/07/01 04:15:30;;;;;;;13.43;8.02;;;13.50;99.90;;;;;;5073116;28;20550;-73
2022/07/01 04:17:56;;;;;;;17.02;8.00;;;13.50;99.90;;;;;;5073175;28;20028;-73
2022/07/01 04:20:21;;;;;;;15.43;8.05;;;13.50;99.90;;;;;;5074457;28;20389;-73
2022/07/01 04:22:47;;;;;;;17.20;8.77;;;13.50;99.90;;;;;;5074290;28;20107;-73
2022/07/01 04:25:13;;;;;;;19.65;8.27;;;13.50;99.90;;;;;;5073253;28;20079;-74
2022/07/01 04:27:38;;;;;;;15.82;8.55;;;15.10;99.90;;;;;;5074200;28;20100;-74
2022/07/01 04:30:04;;;;;;;18.00;9.10;;;13.60;99.90;;;;;;5073949;28;20063;-73
2022/07/01 04:32:30;;;;;;;14.25;7.53;;;13.70;99.90;;;;;;5074483;28;20050;-73
2022/07/01 04:34:56;;;;;;;18.65;8.85;;;13.60;99.90;;;;;;5074314;28;20067;-73
2022/07/01 04:37:22;;;;;;;15.68;8.27;;;13.60;99.90;;;;;;5073115;28;20031;-73
2022/07/01 04:39:47;;;;;;;16.20;8.07;;;13.70;99.90;;;;;;5074031;28;20504;-74
2022/07/01 04:42:15;;;;;;;13.32;7.85;;;13.70;99.90;;;;;;5074002;28;20025;-74
2022/07/01 04:44:40;;;;;;;17.30;8.77;;;13.70;99.90;;;;;;5073989;28;20099;-74
2022/07/01 04:47:06;;;;;;;13.65;8.40;;;13.80;99.90;;;;;;5074116;28;20048;-74
2022/07/01 04:49:32;;;;;;;16.15;7.85;;;13.80;99.90;;;;;;5074112;28;20445;-74
2022/07/01 04:51:58;;;;;;;13.25;6.82;;;13.80;99.90;;;;;;5073618;28;20045;-74
2022/07/01 04:54:25;;;;;;;15.45;8.00;;;13.80;99.90;;;;;;5074054;28;20016;-74
2022/07/01 04:56:52;;;;;;;21.25;9.15;;;13.80;99.90;;;;;;5073645;28;20078;-74
2022/07/01 04:59:18;;;;;;;17.33;8.43;;;13.90;99.90;;;;;;5073864;28;20028;-74
2022/07/01 05:01:45;;;;;;;12.30;7.75;;;13.90;99.90;;;;;;5073779;28;20107;-73
2022/07/01 05:04:12;;;;;;;14.38;7.75;;;14.00;99.90;;;;;;5074031;28;20025;-73
2022/07/01 05:06:38;;;;;;;15.43;9.10;;;14.10;99.90;;;;;;5072523;28;20423;-74
2022/07/01 05:09:04;;;;;;;16.27;7.30;;;14.10;99.90;;;;;;5072319;28;20027;-74
2022/07/01 05:11:30;;;;;;;10.35;6.40;;;14.10;99.90;;;;;;5072466;28;20025;-73
2022/07/01 05:13:56;;;;;;;15.48;7.90;;;14.10;99.90;;;;;;5073447;28;20017;-74
2022/07/01 05:16:21;;;;;;;13.60;7.03;;;14.50;99.90;;;;;;5073631;28;20056;-74
2022/07/01 05:24:16;;;;;;;19.33;7.63;;;14.40;99.90;;;;;;5074265;28;20106;-73
2022/07/01 05:26:41;;;;;;;17.42;8.45;;;14.40;99.90;;;;;;5073500;28;20389;-74
2022/07/01 05:29:07;;;;;;;15.43;6.38;;;14.50;99.90;;;;;;5072115;28;20127;-73
2022/07/01 05:31:33;;;;;;;13.65;6.65;;;14.50;99.90;;;;;;5072133;28;20111;-74
2022/07/01 05:33:58;;;;;;;11.50;5.88;;;14.50;99.90;;;;;;5072186;28;20478;-74
2022/07/01 05:36:24;;;;;;;13.27;6.68;;;14.80;99.90;;;;;;5073866;28;20029;-74
2022/07/01 05:38:49;;;;;;;12.10;6.05;;;14.50;99.90;;;;;;5073565;28;20094;-74
2022/07/01 05:41:16;;;;;;;12.98;5.25;;;14.50;99.90;;;;;;5073333;28;20021;-74
2022/07/01 05:43:42;;;;;;;16.13;5.95;;;14.50;99.90;;;;;;5073626;28;20032;-74
2022/07/01 05:46:07;;;;;;;9.07;5.05;;;14.50;99.90;;;;;;5073529;28;20048;-74
2022/07/01 05:48:33;;;;;;;19.60;5.90;;;14.50;99.90;;;;;;5076286;28;20021;-74
2022/07/01 05:50:59;;;;;;;13.75;5.55;;;14.50;99.90;;;;;;5076253;28;20024;-74
2022/07/01 05:53:24;;;;;;;12.05;5.20;;;14.60;99.90;;;;;;5077716;28;20478;-74
2022/07/01 05:55:53;;;;;;;8.40;4.70;;;14.60;99.90;;;;;;5077999;28;20020;-74
2022/07/01 05:58:18;;;;;;;23.63;4.82;;;14.60;99.90;;;;;;5076285;28;20074;-74
2022/07/01 06:00:44;;;;;;;7.85;4.20;;;14.90;99.90;;;;;;5077279;28;20432;-74
2022/07/01 06:03:14;;;;;;;6.75;4.05;;;14.70;99.90;;;;;;5077169;28;20124;-73
2022/07/01 06:05:40;;;;;;;6.93;3.92;;;14.80;99.90;;;;;;5077604;28;20024;-74
2022/07/01 06:08:06;;;;;;;7.85;4.35;;;14.80;99.90;;;;;;5077621;28;20492;-75
2022/07/01 06:10:35;;;;;;;4.15;3.05;;;14.90;99.90;;;;;;5075576;28;20025;-75
2022/07/01 06:13:02;;;;;;;7.50;3.60;;;14.90;99.90;;;;;;5076999;28;20025;-75
2022/07/01 06:15:28;;;;;;;7.97;4.05;;;14.90;99.90;;;;;;5075874;28;20021;-73
2022/07/01 06:17:53;;;;;;;9.75;4.03;;;17.10;99.90;;;;;;5076822;28;20104;-74
2022/07/01 06:20:19;;;;;;;8.55;3.47;;;15.00;99.90;;;;;;5075402;28;20024;-74
2022/07/01 06:22:45;;;;;;;10.68;3.72;;;15.00;99.90;;;;;;5077274;28;20420;-75
2022/07/01 06:25:10;;;;;;;9.90;3.45;;;15.00;99.90;;;;;;5076750;28;20043;-75
2022/07/01 06:27:43;;;;;;;10.70;3.13;;;15.00;99.90;;;;;;5076410;28;20021;-74
2022/07/01 06:30:10;;;;;;;8.75;3.60;;;15.10;99.90;;;;;;5077143;28;20027;-74
2022/07/01 06:32:39;;;;;;;8.13;2.75;;;15.20;99.90;;;;;;5075434;28;20090;-74
2022/07/01 06:35:05;;;;;;;6.78;2.45;;;15.30;99.90;;;;;;5076800;28;20036;-74
2022/07/01 06:37:33;;;;;;;7.63;2.30;;;15.40;99.90;;;;;;5076768;28;20051;-74
2022/07/01 06:40:00;;;;;;;4.70;2.53;;;15.60;99.90;;;;;;5076032;28;20049;-74
2022/07/01 06:42:25;;;;;;;5.78;2.50;;;15.70;99.90;;;;;;5076123;28;20477;-74
2022/07/01 06:44:53;;;;;;;5.13;2.47;;;15.90;99.90;;;;;;5076039;28;20032;-74
2022/07/01 06:47:18;;;;;;;8.10;2.40;;;15.90;99.90;;;;;;5076028;28;20024;-74
2022/07/01 06:49:44;;;;;;;5.28;2.20;;;16.10;99.90;;;;;;5074500;28;20078;-75
2022/07/01 06:52:10;;;;;;;6.68;2.10;;;16.30;99.90;;;;;;5075843;28;20025;-75
2022/07/01 06:54:37;;;;;;;7.70;2.55;;;16.40;99.90;;;;;;5074636;28;20016;-75
2022/07/01 06:57:12;;;;;;;12.45;2.67;;;16.50;99.90;;;;;;5102097;22;20043;-88
2022/07/01 06:59:38;;;;;;;13.27;2.10;;;16.50;99.90;;;;;;5257732;22;20052;-74
2022/07/01 07:02:07;;;;;;;6.18;1.75;;;16.40;99.90;;;;;;5077305;28;20057;-72
2022/07/01 07:04:33;;;;;;;6.45;1.58;;;16.50;99.90;;;;;;5094847;28;20016;-73
2022/07/01 07:06:58;;;;;;;6.90;2.20;;;16.40;99.90;;;;;;5095061;28;20031;-73
2022/07/01 07:09:24;;;;;;;5.38;2.03;;;16.50;99.90;;;;;;5096138;28;20032;-75
2022/07/01 07:11:49;;;;;;;10.63;2.20;;;16.60;99.90;;;;;;5095917;28;20107;-73
2022/07/01 07:14:15;;;;;;;7.63;2.50;;;16.70;99.90;;;;;;5096233;28;20449;-73
2022/07/01 07:16:41;;;;;;;4.47;1.65;;;16.80;99.90;;;;;;5077525;28;20107;-73
2022/07/01 07:19:07;;;;;;;5.75;1.48;;;16.80;99.90;;;;;;5095721;28;20020;-73
2022/07/01 07:21:33;;;;;;;7.80;2.00;;;17.00;99.90;;;;;;5095548;28;20043;-73
2022/07/01 07:23:58;;;;;;;1.27;0.90;;;17.20;99.90;;;;;;5095740;28;20101;-73
2022/07/01 07:26:24;;;;;;;4.63;1.27;;;17.30;99.90;;;;;;5095676;28;20023;-73
2022/07/01 07:28:51;;;;;;;8.93;0.90;;;17.50;99.90;;;;;;5095266;28;20092;-73
2022/07/01 07:31:16;;;;;;;3.70;0.43;;;17.60;99.90;;;;;;5095072;28;20027;-73
2022/07/01 07:33:42;;;;;;;7.53;0.28;;;17.70;99.90;;;;;;5095478;28;20468;-74
2022/07/01 07:36:07;;;;;;;6.28;0.35;;;17.90;99.90;;;;;;5095173;28;20432;-74
2022/07/01 07:38:33;;;;;;;8.90;0.75;;;17.90;99.90;;;;;;5060639;28;20027;-74
2022/07/01 07:41:03;;;;;;;4.63;1.05;;;18.10;99.90;;;;;;5083222;28;20040;-74
2022/07/01 07:43:29;;;;;;;3.95;1.42;;;18.20;99.90;;;;;;5059464;28;20111;-74
2022/07/01 07:45:55;;;;;;;6.63;0.43;;;18.30;99.90;;;;;;5075543;28;20513;-74
2022/07/01 07:48:20;;;;;;;7.50;0.77;;;18.10;99.90;;;;;;5092260;28;20103;-73
2022/07/01 07:50:47;;;;;;;4.10;0.60;;;18.00;99.90;;;;;;5094460;28;20016;-73
2022/07/01 07:53:13;;;;;;;2.03;0.20;;;17.90;99.90;;;;;;5094717;28;20024;-74
2022/07/01 07:55:38;;;;;;;3.05;0.85;;;17.90;99.90;;;;;;5095402;28;20103;-74
2022/07/01 07:58:06;;;;;;;2.28;0.10;;;18.00;99.90;;;;;;5094935;28;20035;-74
2022/07/01 08:00:31;;;;;;;4.22;0.40;;;18.00;99.90;;;;;;5094932;28;20547;-73
2022/07/01 08:02:57;;;;;;;3.28;0.25;;;17.60;99.90;;;;;;5095289;28;20043;-73
2022/07/01 08:05:22;;;;;;;3.00;0.43;;;17.60;99.90;;;;;;5094676;28;20049;-73
2022/07/01 08:07:48;;;;;;;4.75;0.17;;;17.70;99.90;;;;;;5094658;28;20024;-73
2022/07/01 08:10:14;;;;;;;7.22;0.35;;;17.60;99.90;;;;;;5094451;28;20032;-73
2022/07/01 08:12:40;;;;;;;3.55;0.57;;;17.80;99.90;;;;;;5094575;28;20488;-74
2022/07/01 08:15:08;;;;;;;3.05;0.50;;;17.70;99.90;;;;;;5094609;28;20027;-73
2022/07/01 08:17:34;;;;;;;2.83;0.00;;;17.60;99.90;;;;;;5094522;28;20035;-75
2022/07/01 08:19:59;;;;;;;3.60;0.65;;;17.70;99.90;;;;;;5094470;28;20020;-75
2022/07/01 08:22:25;;;;;;;8.70;0.15;;;17.90;99.90;;;;;;5076228;28;20557;-73
2022/07/01 08:24:50;;;;;;;3.00;0.20;;;17.90;99.90;;;;;;5094604;28;20051;-73
2022/07/01 08:27:16;;;;;;;1.98;0.03;;;18.00;99.90;;;;;;5094439;28;20032;-75
2022/07/01 08:29:42;;;;;;;3.92;0.55;;;18.30;99.90;;;;;;5094469;28;20113;-74
2022/07/01 08:32:08;;;;;;;0.50;0.10;;;18.60;99.90;;;;;;5093658;28;20385;-74
2022/07/01 08:34:35;;;;;;;3.05;0.10;;;18.90;99.90;;;;;;5094635;28;20020;-73
2022/07/01 08:37:01;;;;;;;2.90;0.00;;;19.30;99.90;;;;;;5093791;28;20016;-74
2022/07/01 08:39:26;;;;;;;1.77;0.00;;;19.50;99.90;;;;;;5075906;28;20028;-74
2022/07/01 08:41:52;;;;;;;3.95;0.00;;;19.60;99.90;;;;;;5094401;28;20031;-74
2022/07/01 08:44:18;;;;;;;3.13;0.00;;;19.70;99.90;;;;;;5094099;28;20034;-74
2022/07/01 08:46:43;;;;;;;3.70;0.22;;;20.50;99.90;;;;;;5093815;28;20043;-74
2022/07/01 08:49:09;;;;;;;1.50;0.00;;;19.40;99.90;;;;;;5093711;28;20024;-74
2022/07/01 08:51:34;;;;;;;3.83;0.20;;;19.20;99.90;;;;;;5094152;28;20027;-74
2022/07/01 08:54:00;;;;;;;5.72;0.35;;;19.10;99.90;;;;;;5093950;28;20020;-74
2022/07/01 08:56:41;;;;;;;1.65;0.00;;;19.20;99.90;;;;;;5094129;28;20058;-74
2022/07/01 08:59:12;;;;;;;4.53;0.40;;;19.40;99.90;;;;;;5093692;28;20027;-74
2022/07/01 09:01:39;;;;;;;3.17;0.28;;;19.70;99.90;;;;;;5093582;28;20074;-74
2022/07/01 09:04:19;;;;;;;1.73;0.00;;;19.90;99.90;;;;;;5093683;28;20079;-74
2022/07/01 09:06:46;;;;;;;3.03;0.00;;;20.00;99.90;;;;;;5093749;28;20020;-74
2022/07/01 09:09:14;;;;;;;3.70;0.17;;;20.10;99.90;;;;;;5093633;28;20024;-74
2022/07/01 09:11:53;;;;;;;2.05;0.00;;;20.10;99.90;;;;;;5094096;28;20413;-74
2022/07/01 09:14:21;;;;;;;2.25;0.00;;;20.20;99.90;;;;;;5093664;28;20031;-74
2022/07/01 09:16:55;;;;;;;4.25;0.38;;;20.40;99.90;;;;;;5093512;28;20027;-74
2022/07/01 09:19:22;;;;;;;0.80;0.17;;;20.50;99.90;;;;;;5075415;28;20066;-74
2022/07/01 09:22:00;;;;;;;1.08;0.13;;;20.30;99.90;;;;;;5092985;28;20365;-74
2022/07/01 09:24:42;;;;;;;0.82;0.00;;;20.20;99.90;;;;;;5093539;28;20020;-74
2022/07/01 09:27:11;;;;;;;2.08;0.22;;;20.30;99.90;;;;;;5076432;28;20110;-74
2022/07/01 09:29:39;;;;;;;2.25;0.00;;;20.30;99.90;;;;;;5075213;28;20443;-74
2022/07/01 09:32:07;;;;;;;1.17;0.00;;;20.20;99.90;;;;;;5075324;28;20020;-74
2022/07/01 09:34:56;;;;;;;3.95;0.35;;;20.40;99.90;;;;;;5093418;28;20153;-76
2022/07/01 09:37:26;;;;;;;4.32;0.00;;;20.60;99.90;;;;;;5065320;28;20020;-74
2022/07/01 09:40:10;;;;;;;2.05;0.00;;;21.10;99.40;;;;;;5093283;28;20036;-74
2022/07/01 09:42:45;;;;;;;1.92;0.08;;;20.60;99.90;;;;;;5074481;28;20036;-74
2022/07/01 09:45:11;;;;;;;3.92;0.40;;;21.50;99.90;;;;;;5075141;28;20028;-74
2022/07/01 09:47:40;;;;;;;1.77;0.00;;;22.70;99.60;;;;;;5075076;28;20043;-74
2022/07/01 09:50:07;;;;;;;0.70;0.00;;;20.70;99.90;;;;;;5092961;28;20055;-74
2022/07/01 09:52:33;;;;;;;0.40;0.00;;;20.80;95.60;;;;;;5093338;28;20370;-74
2022/07/01 09:54:59;;;;;;;0.75;0.00;;;20.80;98.10;;;;;;5093507;28;20016;-74
2022/07/01 09:57:24;;;;;;;0.98;0.00;;;20.70;97.50;;;;;;5093048;28;20031;-74
2022/07/01 09:59:51;;;;;;;1.08;0.30;;;20.70;97.60;;;;;;5093071;28;20035;-74
2022/07/01 10:02:21;;;;;;;0.10;0.00;;;20.80;95.20;;;;;;5093489;28;20023;-74
2022/07/01 10:04:54;;;;;;;1.50;0.00;;;20.80;94.90;;;;;;5075003;28;20044;-74
2022/07/01 10:07:19;;;;;;;2.22;0.00;;;20.50;94.50;;;;;;5093049;28;20443;-74
2022/07/01 10:09:53;;;;;;;3.58;0.17;;;20.30;94.50;;;;;;5093231;28;20119;-74
2022/07/01 10:12:47;;;;;;;0.47;0.00;;;20.30;96.50;;;;;;5092963;28;20032;-74
2022/07/01 10:15:17;;;;;;;1.35;0.00;;;20.40;94.60;;;;;;5093228;28;20024;-74
2022/07/01 10:17:46;;;;;;;0.05;0.00;;;20.60;94.20;;;;;;5092786;28;20031;-74
2022/07/01 10:20:11;;;;;;;2.72;0.10;;;20.80;93.70;;;;;;5093316;28;20020;-74
2022/07/01 10:22:38;;;;;;;1.35;0.00;;;20.90;92.90;;;;;;5075061;28;20539;-74
2022/07/01 10:25:30;;;;;;;1.40;0.00;;;21.10;94.10;;;;;;5074905;28;20119;-74
2022/07/01 10:28:25;;;;;;;1.58;0.20;;;21.40;94.10;;;;;;5065891;28;20439;-74
2022/07/01 10:31:09;;;;;;;0.25;0.00;;;21.40;94.40;;;;;;5074670;28;20031;-74
2022/07/01 10:33:49;;;;;;;0.88;0.00;;;21.30;91.20;;;;;;5093471;28;20013;-74
2022/07/01 10:36:17;;;;;;;1.60;0.00;;;20.90;92.20;;;;;;5096379;28;20519;-74
2022/07/01 10:39:03;;;;;;;1.48;0.00;;;20.50;91.80;;;;;;5078225;28;20028;-74
2022/07/01 10:41:31;;;;;;;3.05;0.15;;;20.20;94.00;;;;;;5078241;28;20028;-74
2022/07/01 10:43:57;;;;;;;0.10;0.00;;;20.00;93.60;;;;;;5096546;28;20365;-74
2022/07/01 10:46:40;;;;;;;2.17;0.00;;;20.10;96.90;;;;;;5096226;28;20020;-74
2022/07/01 10:49:08;;;;;;;3.33;0.20;;;20.30;93.90;;;;;;5077943;28;20027;-74
2022/07/01 10:51:49;;;;;;;0.38;0.00;;;20.40;93.60;;;;;;5078132;28;20030;-74
2022/07/01 10:54:36;;;;;;;1.58;0.10;;;20.40;90.30;;;;;;5096869;28;20020;-74
2022/07/01 10:57:19;;;;;;;2.28;0.00;;;20.20;92.60;;;;;;5096148;28;20149;-74
2022/07/01 11:00:00;;;;;;;3.15;0.00;;;20.30;94.10;;;;;;5095961;28;20032;-74
2022/07/01 11:02:28;;;;;;;1.13;0.08;;;20.50;93.30;;;;;;5077871;28;20024;-74
2022/07/01 11:04:58;;;;;;;1.92;0.00;;;20.90;94.30;;;;;;5077854;28;20089;-74
2022/07/01 11:07:26;;;;;;;4.43;0.00;;;21.00;93.10;;;;;;5095923;28;20054;-74
2022/07/01 11:09:52;;;;;;;0.08;0.00;;;20.90;92.00;;;;;;5095834;28;20055;-74
2022/07/01 11:12:20;;;;;;;2.03;0.10;;;20.60;91.80;;;;;;5095870;28;20024;-74
2022/07/01 11:14:46;;;;;;;5.88;0.00;;;20.70;87.10;;;;;;5077587;28;20353;-74
2022/07/01 11:17:11;;;;;;;1.08;0.00;;;21.00;91.30;;;;;;5095643;28;20023;-74
2022/07/01 11:19:37;;;;;;;3.60;0.00;;;21.50;86.10;;;;;;5095758;28;20032;-74
2022/07/01 11:22:05;;;;;;;1.40;0.00;;;21.40;82.50;;;;;;5095626;28;20507;-74
2022/07/01 11:24:30;;;;;;;1.25;0.00;;;21.40;85.10;;;;;;5095595;28;20023;-74
2022/07/01 11:27:05;;;;;;;0.80;0.00;;;21.70;87.20;;;;;;5077473;28;20484;-74
2022/07/01 11:29:30;;;;;;;1.73;0.00;;;21.70;85.20;;;;;;5095446;28;20028;-74
2022/07/01 11:31:56;;;;;;;2.22;0.20;;;21.50;87.90;;;;;;5077271;28;20510;-74
2022/07/01 11:34:22;;;;;;;1.33;0.28;;;21.80;88.40;;;;;;5077632;28;20091;-74
2022/07/01 11:39:35;;;;;;;1.23;0.00;;;22.20;81.80;;;;;;5095642;28;20471;-74
2022/07/01 11:42:06;;;;;;;;;;;22.00;84.90;;;;;;5096021;28;20090;-74
2022/07/01 11:44:37;;;;;;;1.42;0.00;;;22.10;84.60;;;;;;5095275;28;20372;-74
2022/07/01 11:47:07;;;;;;;1.20;0.00;;;22.10;79.30;;;;;;5095143;28;20052;-74
2022/07/01 11:49:42;;;;;;;1.50;0.20;;;22.30;80.50;;;;;;5095148;28;20065;-74
2022/07/01 11:52:10;;;;;;;0.30;0.00;;;22.60;83.10;;;;;;5095190;28;20107;-74
2022/07/01 11:54:37;;;;;;;0.70;0.00;;;22.50;76.00;;;;;;5094913;28;20073;-75
2022/07/01 11:57:23;;;;;;;0.00;0.00;;;22.60;77.80;;;;;;5077078;28;20107;-74
2022/07/01 11:59:52;;;;;;;0.30;0.00;;;22.70;80.10;;;;;;5095093;28;20501;-74
2022/07/01 12:02:21;;;;;;;0.63;0.00;;;22.90;77.00;;;;;;5095159;28;20035;-74
2022/07/01 12:04:48;;;;;;;1.00;0.00;;;23.10;77.70;;;;;;5094794;28;20066;-74
2022/07/01 12:07:15;;;;;;;3.08;0.10;;;23.10;75.90;;;;;;5094635;28;20020;-74
2022/07/01 12:09:41;;;;;;;0.52;0.00;;;23.20;72.50;;;;;;5094605;28;20035;-74
2022/07/01 12:12:14;;;;;;;1.00;0.00;;;23.10;67.50;;;;;;5094750;28;20477;-74
2022/07/01 12:14:48;;;;;;;4.57;0.20;;;22.90;71.40;;;;;;5076622;28;20028;-74
2022/07/01 12:17:16;;;;;;;0.68;0.00;;;23.10;68.80;;;;;;5094843;28;20020;-74
2022/07/01 12:19:44;;;;;;;1.40;0.00;;;23.10;67.70;;;;;;5094555;28;20024;-74
2022/07/01 12:22:12;;;;;;;0.20;0.00;;;23.00;69.20;;;;;;5094681;28;20016;-74
2022/07/01 12:24:41;;;;;;;0.60;0.00;;;23.10;69.60;;;;;;5094453;28;20024;-74
2022/07/01 12:27:08;;;;;;;0.28;0.00;;;23.20;66.50;;;;;;5076399;28;20115;-74
2022/07/01 12:29:45;;;;;;;2.05;0.00;;;23.80;67.20;;;;;;5094247;28;20020;-74
2022/07/01 12:32:13;;;;;;;0.17;0.00;;;23.50;67.80;;;;;;5076332;28;20031;-74
2022/07/01 12:34:46;;;;;;;0.73;0.17;;;23.30;68.70;;;;;;5076151;28;20050;-74
2022/07/01 12:37:14;;;;;;;1.20;0.00;;;22.70;70.20;;;;;;5094355;28;20262;-74
2022/07/01 12:39:55;;;;;;;2.95;0.00;;;22.40;75.60;;;;;;5094469;28;20048;-74
2022/07/01 12:42:21;;;;;;;1.00;0.35;;;22.00;74.80;;;;;;5094453;28;20095;-74
2022/07/01 12:44:48;;;;;;;0.93;0.00;;;21.80;81.80;;;;;;5094549;28;20498;-74
2022/07/01 12:47:31;;;;;;;1.20;0.00;;;21.40;78.20;;;;;;5093916;28;20020;-75
2022/07/01 12:50:16;;;;;;;4.13;0.47;;;21.10;83.80;;;;;;5093800;28;20028;-74
2022/07/01 12:52:55;;;;;;;5.60;0.13;;;20.80;84.60;;;;;;5093843;28;20026;-75
2022/07/01 12:55:22;;;;;;;1.30;0.00;;;20.30;87.90;;;;;;5093870;28;20024;-75
2022/07/01 12:57:49;;;;;;;2.78;0.00;;;19.90;91.00;;;;;;5093034;28;20455;-75